This is the latest recevied weather packets stored in our database for station/object IU1INZ-13. If no packets are shown the sender has not sent any weather packets the latest 10 day(s).
| Time | Temp. | Humidity | Pressure | Rain* | Wind** | Luminosity | Snow |
|---|---|---|---|---|---|---|---|
| 1777791639 | 16.67° C | 69% | 1019.9 hPa | 0 mm | - | - | - |
| 1777790736 | 16.67° C | 67% | 1019.9 hPa | 0 mm | - | - | - |
| 1777789832 | 16.11° C | 68% | 1019.6 hPa | 0 mm | - | - | - |
| 1777788932 | 15° C | 70% | 1019.8 hPa | 0 mm | - | - | - |
| 1777788046 | 12.78° C | 78% | 1020.1 hPa | 0 mm | - | - | - |
| 1777787141 | 11.67° C | 80% | 1020.1 hPa | 0 mm | - | - | - |
| 1777786233 | 11.11° C | 81% | 1020 hPa | 0 mm | - | - | - |
| 1777785333 | 10.56° C | 81% | 1019.7 hPa | 0 mm | - | - | - |
| 1777784434 | 10.56° C | 81% | 1019.8 hPa | 0 mm | - | - | - |
| 1777783532 | 10.56° C | 81% | 1019.7 hPa | 0 mm | - | - | - |
| 1777782631 | 10.56° C | 80% | 1019.7 hPa | 0 mm | - | - | - |
| 1777781738 | 10.56° C | 79% | 1019.6 hPa | 0 mm | - | - | - |
| 1777780833 | 11.11° C | 78% | 1019.8 hPa | 0 mm | - | - | - |
| 1777779932 | 11.11° C | 78% | 1019.8 hPa | 0 mm | - | - | - |
| 1777779042 | 11.11° C | 77% | 1019.8 hPa | 0 mm | - | - | - |
| 1777778132 | 11.11° C | 77% | 1020 hPa | 0 mm | - | - | - |
| 1777777235 | 11.67° C | 76% | 1019.9 hPa | 0 mm | - | - | - |
| 1777776335 | 12.22° C | 75% | 1020 hPa | 0 mm | - | - | - |
| 1777775433 | 12.22° C | 75% | 1020.1 hPa | 0 mm | - | - | - |
| 1777774532 | 12.78° C | 74% | 1020.1 hPa | 0 mm | - | - | - |
| 1777773632 | 12.22° C | 74% | 1020.2 hPa | 0 mm | - | - | - |
| 1777772756 | 12.78° C | 74% | 1020.2 hPa | 0 mm | - | - | - |
| 1777771838 | 12.78° C | 73% | 1020.2 hPa | 0 mm | - | - | - |
| 1777770940 | 12.22° C | 75% | 1020.3 hPa | 0 mm | - | - | - |
| 1777770043 | 12.22° C | 76% | 1020.3 hPa | 0 mm | - | - | - |
* Rain latest hour (hover to see other rain measurements)
** Current wind speed in m/s (hover to see current wind gust speed)